createdAt,value
2018-11-20T00:00:41.895Z,8.43
2018-11-20T00:03:41.916Z,8.47
2018-11-20T00:06:48.853Z,8.63
2018-11-20T00:09:48.920Z,8.47
2018-11-20T00:12:55.789Z,8.47
2018-11-20T00:15:55.706Z,8.50
2018-11-20T00:19:02.606Z,8.87
2018-11-20T00:22:02.008Z,8.53
2018-11-20T00:25:08.864Z,9.43
2018-11-20T00:28:14.627Z,8.93
2018-11-20T00:31:08.567Z,8.73
2018-11-20T00:34:14.071Z,8.53
2018-11-20T00:37:20.847Z,8.43
2018-11-20T00:40:21.199Z,8.63
2018-11-20T00:43:27.925Z,8.70
2018-11-20T00:49:48.550Z,8.30
2018-11-20T00:52:48.831Z,9.27
2018-11-20T00:56:34.573Z,8.37
2018-11-20T00:59:35.952Z,8.37
2018-11-20T01:02:42.696Z,9.63
2018-11-20T01:05:36.427Z,8.30
2018-11-20T01:08:43.065Z,9.80
2018-11-20T01:11:42.619Z,8.83
2018-11-20T01:14:49.414Z,9.43
2018-11-20T01:17:49.345Z,9.23
2018-11-20T01:20:56.276Z,10.00
2018-11-20T01:23:48.519Z,10.20
2018-11-20T01:26:55.406Z,10.93
2018-11-20T01:29:55.149Z,10.63
2018-11-20T01:32:55.689Z,10.90
2018-11-20T01:36:02.572Z,10.80
2018-11-20T01:39:02.381Z,11.40
2018-11-20T01:42:09.250Z,10.77
2018-11-20T01:45:09.463Z,11.00
2018-11-20T01:48:16.135Z,10.70
2018-11-20T01:51:19.189Z,10.43
2018-11-20T01:54:25.850Z,10.67
2018-11-20T01:57:28.824Z,12.53
2018-11-20T02:00:27.482Z,12.10
2018-11-20T02:03:27.842Z,11.40
2018-11-20T02:06:34.735Z,10.63
2018-11-20T02:09:40.031Z,11.53
2018-11-20T02:12:46.812Z,10.53
2018-11-20T02:15:47.382Z,11.23
2018-11-20T02:18:55.096Z,12.10
2018-11-20T02:21:56.797Z,13.03
2018-11-20T02:24:57.697Z,11.47
2018-11-20T02:28:04.859Z,11.90
2018-11-20T02:31:04.735Z,12.60
2018-11-20T02:34:12.167Z,12.57
2018-11-20T02:37:02.947Z,12.50
2018-11-20T02:40:09.879Z,13.10
2018-11-20T02:43:00.425Z,14.57
2018-11-20T02:46:07.895Z,12.90
2018-11-20T02:49:09.433Z,13.60
2018-11-20T02:52:08.709Z,14.40
2018-11-20T02:55:11.417Z,15.00
2018-11-20T02:58:18.481Z,15.47
2018-11-20T03:01:12.476Z,14.73
2018-11-20T03:04:19.426Z,16.07
2018-11-20T03:07:14.069Z,15.30
2018-11-20T03:10:10.162Z,16.50
2018-11-20T03:13:10.268Z,15.10
2018-11-20T03:16:17.169Z,14.33
2018-11-20T03:19:16.941Z,16.27
2018-11-20T03:22:23.800Z,16.40
2018-11-20T03:25:43.439Z,16.30
2018-11-20T03:28:53.475Z,16.60
2018-11-20T03:35:09.320Z,15.43
2018-11-20T03:38:09.271Z,16.07
2018-11-20T03:41:13.071Z,15.37
2018-11-20T03:44:13.033Z,16.10
2018-11-20T03:47:06.352Z,16.20
2018-11-20T03:50:06.786Z,17.37
2018-11-20T03:53:13.703Z,17.80
2018-11-20T03:56:13.920Z,18.17
2018-11-20T03:59:20.769Z,17.10
2018-11-20T04:02:20.820Z,16.93
2018-11-20T04:05:15.698Z,16.13
2018-11-20T04:08:15.719Z,16.60
2018-11-20T04:11:22.543Z,17.80
2018-11-20T04:14:20.452Z,16.10
2018-11-20T04:17:27.222Z,15.30
2018-11-20T04:20:15.742Z,15.90
2018-11-20T04:23:22.493Z,16.30
2018-11-20T04:26:22.150Z,15.10
2018-11-20T04:29:28.983Z,17.00
2018-11-20T04:32:16.774Z,15.97
2018-11-20T04:35:25.879Z,16.47
2018-11-20T04:38:28.803Z,16.67
2018-11-20T04:41:35.503Z,16.73
2018-11-20T04:44:35.062Z,15.83
2018-11-20T04:47:41.847Z,14.60
2018-11-20T04:50:41.927Z,16.03
2018-11-20T04:53:48.760Z,15.80
2018-11-20T04:56:37.924Z,14.70
2018-11-20T04:59:44.724Z,15.13
2018-11-20T05:02:44.963Z,15.27
2018-11-20T05:05:44.526Z,15.40
2018-11-20T05:08:51.374Z,15.00
2018-11-20T05:11:51.454Z,14.70
2018-11-20T05:14:58.266Z,15.80
2018-11-20T05:18:05.057Z,16.00
2018-11-20T05:21:05.405Z,15.80
2018-11-20T05:24:12.060Z,15.70
2018-11-20T05:27:12.405Z,15.17
2018-11-20T05:30:19.225Z,14.30
2018-11-20T05:33:19.457Z,15.47
2018-11-20T05:36:26.264Z,14.73
2018-11-20T05:39:16.584Z,14.20
2018-11-20T05:42:23.444Z,14.70
2018-11-20T05:45:25.121Z,15.40
2018-11-20T05:48:32.180Z,14.63
2018-11-20T05:51:38.892Z,15.30
2018-11-20T05:54:44.302Z,14.77
2018-11-20T06:00:57.499Z,14.73
2018-11-20T06:04:04.312Z,14.40
2018-11-20T06:07:05.358Z,14.73
2018-11-20T06:10:12.179Z,16.27
2018-11-20T06:13:12.399Z,14.37
2018-11-20T06:16:11.891Z,14.07
2018-11-20T06:19:14.001Z,13.93
2018-11-20T06:22:20.837Z,14.87
2018-11-20T06:25:20.957Z,14.60
2018-11-20T06:28:27.794Z,14.50
2018-11-20T06:31:27.291Z,14.53
2018-11-20T06:34:41.585Z,13.77
2018-11-20T06:37:41.279Z,13.90
2018-11-20T06:40:48.090Z,14.13
2018-11-20T06:43:49.130Z,15.70
2018-11-20T06:46:55.991Z,14.57
2018-11-20T06:49:50.589Z,14.93
2018-11-20T06:52:57.484Z,15.40
2018-11-20T06:55:58.387Z,13.80
2018-11-20T06:58:50.732Z,15.30
2018-11-20T07:01:57.418Z,14.50
2018-11-20T07:04:58.127Z,14.20
2018-11-20T07:08:05.132Z,16.47
2018-11-20T07:11:07.826Z,14.50
2018-11-20T07:14:35.572Z,14.83
2018-11-20T07:17:36.559Z,15.70
2018-11-20T07:20:43.368Z,16.20
2018-11-20T07:23:45.903Z,15.10
2018-11-20T07:26:52.862Z,15.37
2018-11-20T07:29:44.496Z,15.67
2018-11-20T07:32:51.303Z,17.30
2018-11-20T07:35:52.998Z,15.53
2018-11-20T07:39:00.097Z,15.50
2018-11-20T07:42:01.978Z,15.83
2018-11-20T07:45:07.139Z,17.33
2018-11-20T07:48:13.857Z,17.20
2018-11-20T07:51:17.068Z,16.40
2018-11-20T07:54:24.152Z,16.57
2018-11-20T07:57:24.159Z,15.53
2018-11-20T08:00:31.029Z,17.00
2018-11-20T08:03:34.001Z,16.37
2018-11-20T08:07:00.219Z,16.77
2018-11-20T08:09:50.116Z,16.87
2018-11-20T08:12:57.239Z,16.77
2018-11-20T08:15:56.830Z,16.13
2018-11-20T08:19:03.770Z,15.53
2018-11-20T08:22:04.166Z,16.40
2018-11-20T08:25:10.992Z,16.20
2018-11-20T08:28:13.503Z,16.13
2018-11-20T08:31:13.525Z,17.30
2018-11-20T08:34:20.264Z,17.30
2018-11-20T08:37:15.197Z,17.00
2018-11-20T08:40:22.762Z,17.47
2018-11-20T08:43:24.689Z,17.37
2018-11-20T08:46:31.343Z,17.40
2018-11-20T08:52:45.046Z,17.47
2018-11-20T08:55:44.847Z,17.20
2018-11-20T08:58:51.545Z,17.17
2018-11-20T09:01:51.903Z,16.90
2018-11-20T09:04:59.107Z,17.30
2018-11-20T09:08:00.345Z,16.90
2018-11-20T09:11:07.448Z,17.10
2018-11-20T09:14:08.055Z,16.70
2018-11-20T09:17:17.282Z,17.83
2018-11-20T09:20:21.713Z,17.73
2018-11-20T09:23:47.969Z,19.20
2018-11-20T09:26:48.407Z,19.20
2018-11-20T09:29:55.249Z,20.30
2018-11-20T09:32:52.623Z,18.17
2018-11-20T09:36:00.345Z,19.80
2018-11-20T09:39:07.220Z,18.13
2018-11-20T09:42:06.989Z,18.40
2018-11-20T09:45:53.648Z,21.43
2018-11-20T09:48:53.260Z,19.57
2018-11-20T09:52:00.606Z,19.97
2018-11-20T09:55:00.544Z,19.70
2018-11-20T09:58:07.360Z,20.00
2018-11-20T10:01:07.007Z,21.07
2018-11-20T10:04:13.863Z,19.90
2018-11-20T10:07:13.451Z,20.17
2018-11-20T10:10:18.993Z,19.10
2018-11-20T10:13:19.446Z,21.40
2018-11-20T10:16:26.150Z,21.80
2018-11-20T10:19:28.290Z,20.50
2018-11-20T10:22:35.879Z,20.20
2018-11-20T10:28:43.104Z,20.63
2018-11-20T10:31:43.504Z,20.90
2018-11-20T10:34:47.528Z,21.57
2018-11-20T10:37:49.066Z,22.33
2018-11-20T10:40:56.026Z,22.80
2018-11-20T10:44:04.081Z,24.03
2018-11-20T10:47:30.448Z,20.70
2018-11-20T10:50:38.115Z,21.50
2018-11-20T10:53:28.432Z,22.13
2018-11-20T10:56:35.286Z,21.50
2018-11-20T10:59:35.542Z,22.40
2018-11-20T11:02:42.348Z,21.80
2018-11-20T11:05:46.718Z,21.23
2018-11-20T11:08:53.650Z,22.83
2018-11-20T11:11:54.412Z,20.47
2018-11-20T11:18:05.430Z,22.27
2018-11-20T11:21:12.383Z,21.23
2018-11-20T11:24:13.081Z,20.40
2018-11-20T11:27:19.866Z,20.00
2018-11-20T11:30:25.942Z,21.60
2018-11-20T11:33:34.872Z,21.00
2018-11-20T11:36:35.206Z,19.73
2018-11-20T11:39:43.109Z,20.00
2018-11-20T11:42:42.942Z,21.47
2018-11-20T11:45:49.791Z,19.57
2018-11-20T11:48:52.262Z,22.63
2018-11-20T11:51:59.853Z,20.73
2018-11-20T11:55:00.261Z,19.90
2018-11-20T11:58:06.913Z,19.80
2018-11-20T12:01:07.693Z,20.90
2018-11-20T12:04:15.354Z,20.20
2018-11-20T12:07:14.842Z,18.80
2018-11-20T12:10:24.099Z,20.33
2018-11-20T12:13:24.069Z,18.93
2018-11-20T12:16:31.153Z,19.27
2018-11-20T12:19:33.627Z,20.63
2018-11-20T12:22:41.452Z,19.23
2018-11-20T12:25:48.339Z,19.97
2018-11-20T12:28:53.110Z,19.70
2018-11-20T12:31:45.615Z,21.30
2018-11-20T12:35:13.646Z,20.80
2018-11-20T12:38:15.072Z,18.40
2018-11-20T12:41:44.429Z,18.97
2018-11-20T12:44:46.399Z,20.90
2018-11-20T12:47:53.167Z,20.17
2018-11-20T12:50:53.629Z,20.73
2018-11-20T12:54:00.370Z,19.00
2018-11-20T12:57:00.159Z,19.10
2018-11-20T13:00:07.076Z,19.07
2018-11-20T13:03:07.067Z,19.27
2018-11-20T13:06:05.441Z,19.07
2018-11-20T13:09:07.788Z,19.60
2018-11-20T13:12:14.889Z,21.03
2018-11-20T13:15:16.623Z,20.33
2018-11-20T13:18:22.594Z,20.97
2018-11-20T13:21:21.622Z,20.47
2018-11-20T13:24:29.502Z,18.70
2018-11-20T13:27:30.191Z,18.90
2018-11-20T13:30:30.620Z,22.80
2018-11-20T13:33:37.583Z,20.93
2018-11-20T13:36:40.057Z,19.43
2018-11-20T13:39:46.893Z,20.37
2018-11-20T13:42:51.877Z,18.97
2018-11-20T13:45:58.051Z,20.40
2018-11-20T13:48:57.615Z,17.70
2018-11-20T13:52:04.426Z,21.03
2018-11-20T13:55:04.639Z,21.37
2018-11-20T13:58:11.434Z,21.63
2018-11-20T14:01:11.987Z,19.80
2018-11-20T14:04:38.291Z,20.23
2018-11-20T14:07:38.791Z,19.97
2018-11-20T14:10:48.265Z,21.50
2018-11-20T14:13:50.692Z,21.07
2018-11-20T14:16:57.786Z,22.00
2018-11-20T14:19:50.667Z,20.67
2018-11-20T14:22:58.218Z,19.80
2018-11-20T14:25:54.531Z,19.63
2018-11-20T14:29:01.336Z,20.57
2018-11-20T14:32:00.926Z,20.50
2018-11-20T14:35:07.724Z,20.60
2018-11-20T14:41:18.018Z,20.23
2018-11-20T14:44:11.621Z,20.23
2018-11-20T14:47:37.955Z,20.40
2018-11-20T14:50:40.318Z,21.00
2018-11-20T14:53:47.693Z,22.30
2018-11-20T14:56:41.061Z,21.87
2018-11-20T14:59:47.896Z,20.53
2018-11-20T15:02:48.023Z,20.67
2018-11-20T15:06:00.039Z,21.70
2018-11-20T15:08:58.349Z,21.17
2018-11-20T15:12:05.211Z,21.83
2018-11-20T15:15:05.343Z,21.50
2018-11-20T15:18:12.814Z,21.27
2018-11-20T15:21:13.022Z,19.70
2018-11-20T15:24:20.285Z,22.23
2018-11-20T15:27:20.618Z,22.03
2018-11-20T15:30:28.998Z,21.10
2018-11-20T15:33:46.659Z,22.00
2018-11-20T15:36:53.402Z,22.80
2018-11-20T15:39:44.619Z,23.47
2018-11-20T15:42:51.318Z,21.87
2018-11-20T15:45:51.653Z,24.50
2018-11-20T15:48:58.708Z,27.10
2018-11-20T15:51:56.172Z,25.13
2018-11-20T15:55:03.038Z,23.37
2018-11-20T15:58:02.636Z,22.00
2018-11-20T16:01:11.921Z,23.70
2018-11-20T16:04:11.825Z,23.67
2018-11-20T16:07:08.421Z,22.90
2018-11-20T16:09:56.866Z,23.13
2018-11-20T16:12:56.713Z,22.70
2018-11-20T16:16:04.290Z,24.40
2018-11-20T16:19:06.781Z,24.17
2018-11-20T16:22:14.786Z,22.00
2018-11-20T16:25:15.039Z,21.03
2018-11-20T16:28:21.757Z,23.80
2018-11-20T16:31:13.738Z,22.10
2018-11-20T16:34:20.437Z,22.70
2018-11-20T16:37:20.099Z,22.93
2018-11-20T16:40:26.874Z,23.80
2018-11-20T16:43:32.362Z,22.27
2018-11-20T16:46:39.080Z,22.50
2018-11-20T16:49:38.775Z,23.70
2018-11-20T16:52:46.256Z,22.87
2018-11-20T16:55:45.921Z,25.07
2018-11-20T16:58:52.700Z,22.80
2018-11-20T17:01:55.946Z,22.60
2018-11-20T17:05:02.730Z,23.50
2018-11-20T17:08:08.021Z,23.27
2018-11-20T17:11:15.683Z,24.70
2018-11-20T17:14:17.120Z,21.20
2018-11-20T17:17:26.929Z,23.13
2018-11-20T17:20:27.456Z,21.33
2018-11-20T17:23:34.665Z,22.37
2018-11-20T17:26:42.661Z,22.20
2018-11-20T17:29:49.723Z,22.33
2018-11-20T17:32:49.712Z,21.90
2018-11-20T17:39:02.468Z,22.33
2018-11-20T17:42:00.894Z,23.60
2018-11-20T17:45:00.712Z,20.03
2018-11-20T17:48:07.493Z,22.90
2018-11-20T17:51:01.727Z,21.73
2018-11-20T17:54:08.606Z,22.10
2018-11-20T17:57:09.357Z,21.50
2018-11-20T18:00:16.656Z,21.37
2018-11-20T18:03:17.151Z,20.07
2018-11-20T18:06:24.066Z,20.77
2018-11-20T18:09:27.049Z,21.60
2018-11-20T18:12:33.872Z,21.20
2018-11-20T18:15:33.963Z,21.73
2018-11-20T18:18:43.419Z,19.93
2018-11-20T18:21:43.777Z,21.40
2018-11-20T18:24:50.499Z,21.17
2018-11-20T18:27:50.977Z,21.37
2018-11-20T18:30:57.951Z,22.10
2018-11-20T18:33:57.162Z,20.73
2018-11-20T18:37:03.853Z,22.57
2018-11-20T18:40:05.022Z,20.60
2018-11-20T18:43:11.774Z,21.43
2018-11-20T18:46:12.432Z,21.40
2018-11-20T18:49:19.168Z,19.27
2018-11-20T18:52:10.792Z,20.17
2018-11-20T18:55:20.801Z,22.00
2018-11-20T18:58:20.296Z,21.17
2018-11-20T19:01:27.038Z,19.73
2018-11-20T19:04:27.055Z,20.47
2018-11-20T19:07:33.780Z,21.80
2018-11-20T19:10:33.761Z,20.10
2018-11-20T19:13:40.799Z,20.20
2018-11-20T19:16:41.224Z,20.07
2018-11-20T19:19:48.107Z,20.23
2018-11-20T19:22:47.783Z,19.23
2018-11-20T19:25:54.626Z,18.47
2018-11-20T19:32:00.006Z,17.90
2018-11-20T19:34:59.609Z,18.30
2018-11-20T19:38:06.490Z,18.37
2018-11-20T19:41:06.434Z,18.07
2018-11-20T19:44:16.385Z,18.20
2018-11-20T19:47:16.379Z,17.70
2018-11-20T19:50:25.261Z,19.50
2018-11-20T19:53:25.477Z,17.57
2018-11-20T19:56:32.542Z,18.87
2018-11-20T19:59:35.165Z,18.90
2018-11-20T20:02:42.032Z,18.77
2018-11-20T20:05:41.828Z,19.53
2018-11-20T20:08:48.969Z,19.57
2018-11-20T20:11:49.201Z,18.40
2018-11-20T20:14:55.934Z,18.90
2018-11-20T20:17:58.503Z,20.50
2018-11-20T20:21:05.232Z,20.33
2018-11-20T20:24:05.734Z,20.00
2018-11-20T20:27:09.235Z,19.90
2018-11-20T20:30:12.132Z,19.20
2018-11-20T20:33:21.373Z,20.50
2018-11-20T20:36:21.146Z,20.10
2018-11-20T20:39:29.709Z,20.07
2018-11-20T20:42:29.966Z,20.27
2018-11-20T20:45:29.854Z,20.30
2018-11-20T20:48:36.730Z,21.53
2018-11-20T20:51:36.868Z,21.60
2018-11-20T20:54:43.801Z,20.50
2018-11-20T20:58:10.061Z,19.33
2018-11-20T21:01:35.279Z,20.43
2018-11-20T21:04:35.794Z,21.67
2018-11-20T21:07:43.261Z,20.50
2018-11-20T21:10:45.388Z,21.10
2018-11-20T21:13:45.400Z,22.17
2018-11-20T21:20:01.322Z,22.50
2018-11-20T21:23:04.640Z,23.07
2018-11-20T21:26:11.570Z,21.60
2018-11-20T21:29:14.787Z,22.80
2018-11-20T21:32:21.576Z,23.03
2018-11-20T21:35:25.717Z,21.17
2018-11-20T21:38:29.210Z,23.47
2018-11-20T21:41:32.552Z,22.60
2018-11-20T21:44:40.122Z,22.80
2018-11-20T21:47:40.628Z,23.00
2018-11-20T21:50:47.814Z,23.23
2018-11-20T21:53:43.952Z,22.93
2018-11-20T21:56:53.514Z,22.27
2018-11-20T21:59:56.218Z,23.57
2018-11-20T22:03:03.842Z,24.87
2018-11-20T22:06:04.378Z,24.80
2018-11-20T22:09:11.126Z,24.90
2018-11-20T22:12:14.592Z,24.70
2018-11-20T22:15:21.635Z,25.17
2018-11-20T22:18:21.988Z,23.83
2018-11-20T22:21:28.726Z,25.70
2018-11-20T22:24:28.559Z,24.87
2018-11-20T22:27:35.519Z,24.80
2018-11-20T22:30:39.174Z,24.47
2018-11-20T22:33:46.066Z,25.10
2018-11-20T22:36:52.122Z,24.63
2018-11-20T22:39:59.046Z,26.77
2018-11-20T22:42:59.559Z,25.57
2018-11-20T22:46:00.201Z,24.97
2018-11-20T22:49:00.200Z,22.40
2018-11-20T22:52:07.161Z,22.70
2018-11-20T22:55:06.869Z,23.80
2018-11-20T22:58:13.852Z,24.83
2018-11-20T23:01:20.760Z,23.40
2018-11-20T23:04:20.456Z,22.77
2018-11-20T23:07:27.739Z,21.30
2018-11-20T23:10:08.266Z,22.27
2018-11-20T23:15:55.493Z,22.67
2018-11-20T23:18:42.897Z,21.43
2018-11-20T23:21:23.115Z,21.43
2018-11-20T23:24:12.589Z,21.80
2018-11-20T23:26:52.638Z,21.70
2018-11-20T23:29:39.907Z,22.70
2018-11-20T23:32:20.429Z,22.53
2018-11-20T23:35:08.777Z,22.07
2018-11-20T23:37:49.083Z,21.40
2018-11-20T23:40:55.859Z,23.10
2018-11-20T23:43:36.318Z,22.10
2018-11-20T23:46:23.502Z,22.77
2018-11-20T23:49:05.484Z,21.70
2018-11-20T23:51:54.098Z,22.20
2018-11-20T23:54:33.069Z,22.77
2018-11-20T23:57:20.370Z,23.30
